Crystal, Indiana
Current Conditions -  °F | °C
As of 8:35 AM on Monday 26 Jan 2015 (Local Time) from KHNB Reporting Station
Overcast Overcast  
Wind Chill: 20°   Ceiling: 1400
Heat Index: 28°   Visibility: 10mi
Dew Point: 23°   Wind: 8mph
Humidity: 80%   Direction: 320°NW
Pressure: 29.99"   Gusts: NA
Location:  38.4736°N, 86.7813°W
Report Text: KHNB 261435Z AUTO 32007KT 10SM OVC014 M02/M05 A2999 RMK AO1
Loading
Personal Weather Stations






























Interactive Weather Map New forecast layout! Learn more

10-Day Weather Forecast

Advertisements
Track Severe Weather on mobile